Terminal Aerodrome Forecast
Issued by NWS Bismarck, ND

Home | Current Version | Previous Version | Graphics & Text | Print | Product List | Glossary On
Versions: 1 2 3 4 5 6 7 8 9 10 11 12 13 14 15 16 17 18 19
000
FTUS43 KBIS 141508 AAA
TAFBIS
TAF AMD
KBIS 141508Z 1415/1512 34015G23KT P6SM -SHSN OVC015
      TEMPO 1415/1419 -SHSN BKN025 OVC045
     FM141900 33016G22KT P6SM OVC025
     FM142300 32011KT P6SM BKN050
     FM150400 28006KT P6SM OVC035=

USA.gov is the U.S. government's official web portal to all federal, state and local government web resources and services.